Time;durP1;ratioP1;P1;durP2;ratioP2;P2;SDS_P1;SDS_P2;PMS_P1;PMS_P2;Temp;Humidity;BMP_temperature;BMP_pressure;BME280_temperature;BME280_humidity;BME280_pressure;Samples;Min_cycle;Max_cycle;Signal;HPM_P1;HPM_P2
2021/07/16 05:32:15;;;;;;;26.07;17.60;;;;;;;24.36;74.02;99952.16;1692177;79;26092;-63
2021/07/16 05:34:42;;;;;;;31.52;18.25;;;;;;;24.43;73.84;99948.73;1713044;83;27554;-63
2021/07/16 05:37:08;;;;;;;31.77;19.20;;;;;;;24.50;73.85;99952.01;1709073;83;25904;-64
2021/07/16 05:39:35;;;;;;;37.38;19.92;;;;;;;24.58;73.95;99956.88;1684587;83;25728;-63
2021/07/16 05:42:03;;;;;;;23.30;17.07;;;;;;;24.67;73.74;99954.98;1706444;83;25724;-63
2021/07/16 05:44:31;;;;;;;35.38;19.02;;;;;;;24.72;73.66;99957.30;1672431;83;25726;-62
2021/07/16 05:46:58;;;;;;;32.43;19.53;;;;;;;24.79;73.64;99959.39;1670137;85;28109;-63
2021/07/16 05:49:25;;;;;;;34.63;19.62;;;;;;;24.88;73.69;99969.94;1702053;82;25925;-62
2021/07/16 05:51:51;;;;;;;32.38;18.25;;;;;;;24.93;73.40;99975.63;1673425;84;25679;-63
2021/07/16 05:54:19;;;;;;;28.90;17.60;;;;;;;25.04;73.14;99992.07;1699860;83;25854;-63
2021/07/16 05:56:47;;;;;;;27.73;17.40;;;;;;;25.14;73.17;100011.89;1672352;85;25678;-63
2021/07/16 05:59:13;;;;;;;30.52;19.62;;;;;;;25.29;73.06;100018.84;1704248;82;27554;-63
2021/07/16 06:01:39;;;;;;;28.02;17.32;;;;;;;25.36;72.06;100030.41;1676056;83;25988;-63
2021/07/16 06:04:09;;;;;;;29.48;18.48;;;;;;;25.40;72.41;100042.20;1675735;84;25731;-63
2021/07/16 06:06:34;;;;;;;30.60;20.23;;;;;;;25.42;71.85;100052.86;1707627;82;25647;-62
2021/07/16 06:09:00;;;;;;;27.82;19.37;;;;;;;25.28;71.47;100058.00;1679861;84;25643;-63
2021/07/16 06:11:29;;;;;;;31.00;19.02;;;;;;;25.18;71.55;100059.66;1686248;83;28521;-63
2021/07/16 06:13:56;;;;;;;32.38;18.50;;;;;;;25.10;71.75;100061.75;1709593;82;29931;-63
2021/07/16 06:16:22;;;;;;;29.92;17.07;;;;;;;25.05;71.64;100066.36;1706172;82;25723;-63
2021/07/16 06:18:48;;;;;;;28.02;17.10;;;;;;;24.96;71.72;100073.78;1709337;82;26201;-63
2021/07/16 06:21:15;;;;;;;34.20;18.82;;;;;;;24.95;71.62;100076.95;1702256;82;25743;-63
2021/07/16 06:23:41;;;;;;;33.98;18.73;;;;;;;24.90;71.53;100089.25;1703030;82;27649;-63
2021/07/16 06:26:08;;;;;;;26.87;17.90;;;;;;;24.85;71.69;100098.59;1706338;82;25622;-63
2021/07/16 06:28:34;;;;;;;33.45;19.92;;;;;;;24.73;71.41;100098.52;1692582;84;25400;-63
2021/07/16 06:31:01;;;;;;;32.40;18.12;;;;;;;24.67;71.43;100098.77;1686436;83;25712;-63
2021/07/16 06:33:27;;;;;;;26.85;17.10;;;;;;;24.60;71.59;100102.39;1661074;85;25518;-63
2021/07/16 06:35:53;;;;;;;35.43;16.90;;;;;;;24.56;71.68;100101.65;1708986;83;27621;-63
2021/07/16 06:38:20;;;;;;;28.77;19.60;;;;;;;24.50;71.69;100091.61;1683579;83;25576;-69
2021/07/16 06:40:46;;;;;;;27.55;18.00;;;;;;;24.43;71.58;100086.12;1712234;83;25713;-66
2021/07/16 06:43:12;;;;;;;33.78;18.62;;;;;;;24.39;71.58;100104.73;1708370;83;25730;-64
2021/07/16 06:45:39;;;;;;;29.18;17.65;;;;;;;24.33;71.67;100125.12;1710873;82;25700;-64
2021/07/16 06:48:07;;;;;;;27.82;18.67;;;;;;;24.26;71.93;100124.38;1712261;83;26119;-62
2021/07/16 06:50:34;;;;;;;36.00;20.90;;;;;;;24.15;72.55;100133.53;1708878;83;25672;-64
2021/07/16 06:53:01;;;;;;;31.25;19.02;;;;;;;23.96;72.73;100132.09;1713244;83;25792;-65
2021/07/16 06:55:32;;;;;;;34.80;20.15;;;;;;;23.80;73.42;100140.03;1708812;83;25713;-65
2021/07/16 06:57:59;;;;;;;31.07;18.00;;;;;;;23.58;73.89;100158.11;1708300;83;25764;-65
2021/07/16 07:00:25;;;;;;;28.62;17.55;;;;;;;23.31;74.48;100168.25;1711736;83;28473;-67
2021/07/16 07:02:52;;;;;;;28.10;18.35;;;;;;;23.07;75.11;100168.52;1711312;83;25619;-68
2021/07/16 07:05:24;;;;;;;30.95;18.67;;;;;;;22.83;75.53;100176.19;1712530;83;25671;-68
2021/07/16 07:07:48;;;;;;;36.77;21.50;;;;;;;22.63;76.13;100175.23;1708968;83;26280;-69
2021/07/16 07:10:14;;;;;;;28.38;18.45;;;;;;;22.46;76.98;100161.64;1707276;83;25739;-68
2021/07/16 07:12:42;;;;;;;29.60;17.80;;;;;;;22.34;77.75;100155.92;1712815;83;27589;-68
2021/07/16 07:15:10;;;;;;;28.15;18.00;;;;;;;22.19;78.35;100180.48;1714747;83;25669;-68
2021/07/16 07:17:37;;;;;;;29.45;18.95;;;;;;;22.01;79.68;100176.30;1686910;83;25684;-69
2021/07/16 07:20:06;;;;;;;27.65;19.40;;;;;;;21.85;79.42;100190.42;1711548;83;25501;-69
2021/07/16 07:22:32;;;;;;;38.35;18.57;;;;;;;21.73;79.84;100263.72;1711503;83;25747;-68
2021/07/16 07:32:57;;;;;;;12.70;10.65;;;;;;;21.08;82.22;100184.91;1720121;81;25765;-68
2021/07/16 07:35:24;;;;;;;14.43;9.18;;;;;;;20.75;82.49;100117.91;1723768;82;26151;-69
2021/07/16 07:37:50;;;;;;;12.10;7.37;;;;;;;20.65;83.34;100167.53;1728469;81;25737;-69
2021/07/16 07:40:18;;;;;;;10.32;7.80;;;;;;;20.57;84.00;100169.98;1722919;82;29833;-70
2021/07/16 07:42:45;;;;;;;9.88;6.75;;;;;;;20.54;84.35;100159.74;1736371;81;25774;-71
2021/07/16 07:45:13;;;;;;;13.70;6.65;;;;;;;20.51;84.74;100135.17;1728364;81;25697;-69
2021/07/16 07:47:40;;;;;;;11.63;7.67;;;;;;;20.51;85.11;100131.65;1721794;82;25645;-68
2021/07/16 07:50:16;;;;;;;10.18;8.48;;;;;;;20.50;85.36;100134.21;1729601;82;25728;-69
2021/07/16 07:52:41;;;;;;;11.75;7.90;;;;;;;20.50;85.72;100139.11;1696262;82;27611;-69
2021/07/16 07:55:10;;;;;;;9.28;8.08;;;;;;;20.50;85.81;100132.24;1728170;81;26363;-69
2021/07/16 07:57:36;;;;;;;10.45;9.20;;;;;;;20.48;85.97;100118.11;1712922;83;25719;-70
2021/07/16 08:00:07;;;;;;;11.55;8.63;;;;;;;20.48;86.09;100095.32;1713984;83;27713;-67
2021/07/16 08:02:34;;;;;;;15.43;10.65;;;;;;;20.45;86.20;100065.86;1715586;82;25695;-66
2021/07/16 08:05:00;;;;;;;12.88;11.22;;;;;;;20.43;86.31;100047.61;1731701;80;27499;-66
2021/07/16 08:07:27;;;;;;;12.95;11.53;;;;;;;20.41;86.56;100045.23;1718788;82;25689;-66
2021/07/16 08:09:53;;;;;;;22.90;12.33;;;;;;;20.41;86.57;100051.33;1729260;81;25730;-67
2021/07/16 08:12:19;;;;;;;14.95;12.30;;;;;;;20.40;86.79;100051.92;1732081;81;25962;-67
2021/07/16 08:14:46;;;;;;;16.30;14.33;;;;;;;20.39;86.93;100020.12;1726994;82;25809;-66
2021/07/16 08:17:12;;;;;;;19.42;12.75;;;;;;;20.38;87.24;99988.34;1729732;81;27571;-67
2021/07/16 08:19:38;;;;;;;18.65;14.55;;;;;;;20.40;87.46;100018.15;1729651;81;25908;-66
2021/07/16 08:22:05;;;;;;;22.22;15.03;;;;;;;20.40;87.37;100052.48;1724542;81;25721;-66
2021/07/16 08:24:32;;;;;;;20.65;13.30;;;;;;;20.41;87.61;100076.05;1688466;83;26427;-66
2021/07/16 08:26:58;;;;;;;16.80;12.88;;;;;;;20.45;87.85;100072.73;1730871;81;25809;-63
2021/07/16 08:29:24;;;;;;;22.30;16.15;;;;;;;20.50;88.22;100075.15;1725765;82;28047;-62
2021/07/16 08:31:51;;;;;;;15.55;11.80;;;;;;;20.58;88.92;100091.08;1733556;81;25657;-62
2021/07/16 08:34:17;;;;;;;18.15;12.50;;;;;;;20.68;89.07;100089.02;1738098;81;25909;-62
2021/07/16 08:36:45;;;;;;;23.40;14.58;;;;;;;20.80;89.90;100089.30;1700954;83;26426;-62
2021/07/16 08:39:12;;;;;;;16.40;12.18;;;;;;;20.95;90.87;100087.42;1704818;83;25722;-66
2021/07/16 08:41:39;;;;;;;37.15;33.80;;;;;;;21.10;90.83;100090.45;1728615;80;27713;-66
2021/07/16 08:44:06;;;;;;;22.00;16.27;;;;;;;21.25;91.71;100105.06;1729120;82;25765;-66
2021/07/16 08:46:32;;;;;;;19.48;13.45;;;;;;;21.45;92.71;100122.83;1674031;84;25786;-67
2021/07/16 08:49:00;;;;;;;20.62;14.05;;;;;;;21.72;93.93;100126.66;1684173;84;26245;-67
2021/07/16 08:51:27;;;;;;;21.35;15.88;;;;;;;22.05;95.54;100132.23;1700736;83;25772;-67
2021/07/16 08:53:55;;;;;;;20.45;14.47;;;;;;;22.45;96.10;100134.48;1671341;84;27709;-67
2021/07/16 08:56:25;;;;;;;21.55;17.15;;;;;;;22.83;96.57;100154.12;1695997;84;26395;-67
2021/07/16 08:58:52;;;;;;;23.42;17.98;;;;;;;23.16;96.20;100156.28;1683045;84;25744;-67
2021/07/16 09:01:19;;;;;;;23.00;16.25;;;;;;;23.40;96.18;100151.87;1708791;83;25843;-67
2021/07/16 09:04:04;;;;;;;22.60;16.95;;;;;;;23.62;96.10;100153.34;1702282;83;25739;-67
2021/07/16 09:06:51;;;;;;;19.50;16.97;;;;;;;23.85;95.75;100154.83;1711995;81;27452;-68
2021/07/16 09:09:20;;;;;;;20.15;15.53;;;;;;;24.19;95.74;100155.61;1697359;83;25843;-66
2021/07/16 09:11:54;;;;;;;22.02;14.87;;;;;;;24.63;98.32;100155.48;1698790;83;25667;-63
2021/07/16 09:14:25;;;;;;;19.55;13.28;;;;;;;25.05;98.76;100143.05;1678668;84;26419;-63
2021/07/16 09:17:11;;;;;;;17.15;12.98;;;;;;;25.23;96.10;100143.61;1683753;84;25533;-65
2021/07/16 09:19:41;;;;;;;25.20;13.32;;;;;;;25.63;97.98;100141.19;1676197;84;27643;-63
2021/07/16 09:22:19;;;;;;;17.73;11.95;;;;;;;26.00;98.07;100137.33;1681821;84;25693;-63
2021/07/16 09:24:57;;;;;;;13.98;12.10;;;;;;;26.15;96.73;100137.30;1701522;83;25809;-64
2021/07/16 09:27:40;;;;;;;17.37;11.00;;;;;;;26.41;94.86;100152.34;1673714;84;25850;-64
2021/07/16 09:30:41;;;;;;;17.45;10.55;;;;;;;26.55;93.11;100158.87;1678515;84;25847;-64
2021/07/16 09:33:10;;;;;;;15.48;9.88;;;;;;;26.68;92.72;100164.03;1769551;80;27409;-62
2021/07/16 09:35:39;;;;;;;16.17;10.15;;;;;;;26.74;90.00;100161.54;1763980;79;25775;-63
2021/07/16 09:38:14;;;;;;;12.93;8.93;;;;;;;26.92;91.24;100157.84;1717675;83;26174;-65
2021/07/16 09:40:52;;;;;;;12.58;8.15;;;;;;;27.09;92.58;100163.47;1717191;83;25774;-62
2021/07/16 09:43:23;;;;;;;9.43;6.97;;;;;;;27.21;90.78;100174.73;1764579;80;25381;-62
2021/07/16 09:46:06;;;;;;;9.58;8.23;;;;;;;27.37;89.40;100183.00;1763530;80;27467;-63
2021/07/16 09:48:36;;;;;;;7.55;5.95;;;;;;;27.52;89.54;100172.39;1769360;80;25750;-63
2021/07/16 09:51:24;;;;;;;9.73;8.20;;;;;;;27.49;86.29;100162.91;1769848;80;25642;-65
2021/07/16 09:54:03;;;;;;;9.15;6.25;;;;;;;27.56;87.49;100169.69;1769871;80;25733;-67
2021/07/16 09:56:36;;;;;;;10.58;8.28;;;;;;;27.69;85.86;100171.84;1769015;80;25774;-69
2021/07/16 09:59:10;;;;;;;10.58;7.17;;;;;;;27.81;86.89;100168.39;1778610;80;27456;-70
2021/07/16 10:01:43;;;;;;;9.55;6.80;;;;;;;27.83;85.21;100165.18;1712641;83;25840;-72
2021/07/16 10:04:20;;;;;;;11.00;7.33;;;;;;;27.92;83.30;100166.78;1766966;80;25834;-72
2021/07/16 10:06:49;;;;;;;8.43;7.55;;;;;;;28.01;81.31;100168.38;1717155;83;25756;-71
2021/07/16 10:09:19;;;;;;;7.87;6.40;;;;;;;28.17;79.94;100168.22;1725568;82;25661;-71
2021/07/16 10:11:52;;;;;;;8.00;7.15;;;;;;;28.25;79.75;100163.44;1728864;81;27245;-69
2021/07/16 10:14:19;;;;;;;10.18;6.95;;;;;;;28.41;78.29;100168.83;1748295;81;26275;-66
2021/07/16 10:16:48;;;;;;;7.45;6.70;;;;;;;28.50;76.62;100163.42;1773197;80;25728;-71
2021/07/16 10:19:17;;;;;;;8.30;6.08;;;;;;;28.55;74.32;100163.52;1773423;80;25768;-70
2021/07/16 10:21:44;;;;;;;;;;;;;;;28.55;74.08;100167.69;1719929;83;25718;-70
2021/07/16 10:24:14;;;;;;;9.83;8.90;;;;;;;28.49;73.08;100168.84;1717234;83;27628;-70
2021/07/16 10:26:42;;;;;;;10.53;7.33;;;;;;;28.53;73.50;100165.34;1763163;80;25699;-72
2021/07/16 10:29:45;;;;;;;7.62;6.45;;;;;;;28.64;72.35;100168.67;1770432;80;26225;-71
2021/07/16 10:32:11;;;;;;;10.53;7.22;;;;;;;28.66;71.69;100173.81;1770196;80;25749;-71
2021/07/16 10:34:40;;;;;;;6.72;6.05;;;;;;;28.56;70.38;100172.85;1718894;83;25760;-69
2021/07/16 10:37:09;;;;;;;;;;;;;;;28.55;69.57;100176.03;1729475;82;27411;-69
2021/07/16 10:39:52;;;;;;;9.78;5.90;;;;;;;28.48;69.07;100179.77;1698970;82;25939;-67
2021/07/16 10:42:36;;;;;;;7.55;6.72;;;;;;;28.43;69.22;100190.03;1746593;81;25701;-66
2021/07/16 10:45:07;;;;;;;8.03;6.40;;;;;;;28.43;69.28;100188.64;1763513;79;26401;-68
2021/07/16 10:47:49;;;;;;;7.75;5.33;;;;;;;28.46;69.23;100189.94;1669640;83;25852;-68
2021/07/16 10:50:33;;;;;;;7.20;4.78;;;;;;;28.57;69.12;100200.05;1746604;81;27500;-68
2021/07/16 10:52:59;;;;;;;8.00;5.53;;;;;;;28.72;68.92;100197.70;1714534;83;25832;-68
2021/07/16 10:55:38;;;;;;;6.50;5.37;;;;;;;28.87;68.65;100200.30;1695547;83;25817;-69
2021/07/16 10:58:26;;;;;;;7.00;5.67;;;;;;;28.98;68.05;100202.20;1715952;83;26050;-67
2021/07/16 11:01:02;;;;;;;6.90;5.05;;;;;;;29.14;67.41;100199.20;1717487;83;25791;-67
2021/07/16 11:03:49;;;;;;;7.08;6.37;;;;;;;29.36;67.25;100196.02;1741195;81;29697;-68
2021/07/16 11:06:21;;;;;;;5.60;4.83;;;;;;;29.73;67.42;100188.20;1767414;80;25879;-68
2021/07/16 11:08:52;;;;;;;6.35;5.22;;;;;;;30.11;66.18;100185.30;1745965;81;26140;-67
2021/07/16 11:11:35;;;;;;;5.47;4.83;;;;;;;30.35;64.86;100182.93;1741247;82;26518;-67
2021/07/16 11:14:03;;;;;;;8.48;5.33;;;;;;;30.64;64.72;100184.18;1742622;81;25767;-67
2021/07/16 11:16:39;;;;;;;6.65;5.40;;;;;;;31.08;64.77;100181.50;1748670;81;27556;-68
2021/07/16 11:19:17;;;;;;;6.50;4.80;;;;;;;31.59;63.73;100181.10;1748028;81;25691;-67
2021/07/16 11:21:49;;;;;;;7.07;4.10;;;;;;;31.77;61.22;100174.21;1718664;83;25736;-69
2021/07/16 11:24:22;;;;;;;6.47;4.90;;;;;;;31.87;59.78;100184.80;1763326;80;27101;-68
2021/07/16 11:27:17;;;;;;;8.58;4.78;;;;;;;31.70;58.86;100177.26;1713806;83;25693;-68
2021/07/16 11:29:47;;;;;;;5.12;4.30;;;;;;;31.57;58.41;100173.17;1771053;80;28525;-67
2021/07/16 11:32:21;;;;;;;5.80;5.05;;;;;;;31.49;58.10;100169.05;1769418;80;25851;-67
2021/07/16 11:34:59;;;;;;;6.37;4.35;;;;;;;31.41;57.97;100167.75;1772249;80;25652;-67
2021/07/16 11:37:30;;;;;;;4.30;3.83;;;;;;;31.38;57.74;100163.88;1747182;81;25632;-66
2021/07/16 11:40:04;;;;;;;6.87;5.30;;;;;;;31.27;57.27;100174.02;1776893;80;25675;-65
2021/07/16 11:42:39;;;;;;;6.67;4.47;;;;;;;31.13;57.52;100170.37;1714883;83;27527;-65
2021/07/16 11:45:10;;;;;;;4.85;4.37;;;;;;;31.09;57.55;100171.09;1768362;80;25961;-65
2021/07/16 11:47:38;;;;;;;6.08;5.33;;;;;;;31.31;58.25;100169.70;1749956;80;25706;-66
2021/07/16 11:50:09;;;;;;;5.45;4.00;;;;;;;31.68;58.34;100170.58;1776541;80;25663;-66
2021/07/16 11:52:38;;;;;;;5.47;4.62;;;;;;;32.07;57.85;100174.66;1773742;80;25819;-66
2021/07/16 11:55:16;;;;;;;4.80;4.30;;;;;;;32.35;56.60;100165.73;1768969;80;32973;-69
2021/07/16 11:58:01;;;;;;;7.95;5.17;;;;;;;32.73;56.22;100172.97;1779587;79;26015;-67
2021/07/16 12:00:36;;;;;;;5.53;5.00;;;;;;;33.02;56.15;100167.53;1720867;81;25792;-66
2021/07/16 12:03:12;;;;;;;5.22;4.55;;;;;;;33.44;54.80;100165.48;1747321;81;25831;-67
2021/07/16 12:05:55;;;;;;;5.22;4.40;;;;;;;33.71;53.81;100176.47;1772108;80;25733;-66
2021/07/16 12:08:26;;;;;;;7.22;4.90;;;;;;;33.98;52.94;100166.41;1774336;80;28624;-67
2021/07/16 12:11:14;;;;;;;4.92;4.12;;;;;;;34.16;51.49;100169.13;1713564;83;25740;-66
2021/07/16 12:13:41;;;;;;;5.00;4.33;;;;;;;34.16;50.63;100171.93;1770171;80;25740;-66
2021/07/16 12:16:16;;;;;;;4.85;3.62;;;;;;;34.39;50.84;100169.64;1768898;80;25692;-65
2021/07/16 12:18:44;;;;;;;6.20;3.55;;;;;;;34.65;50.67;100169.15;1768679;80;25609;-66
2021/07/16 12:21:16;;;;;;;5.00;4.10;;;;;;;34.88;50.13;100173.98;1771283;80;27397;-66
2021/07/16 12:23:45;;;;;;;5.78;4.70;;;;;;;35.09;49.61;100167.09;1770633;80;25711;-67
2021/07/16 12:26:21;;;;;;;6.20;4.05;;;;;;;35.21;49.29;100173.70;1771564;80;25742;-67
2021/07/16 12:28:50;;;;;;;8.50;4.05;;;;;;;35.30;48.46;100175.83;1717448;83;26430;-66
2021/07/16 12:31:22;;;;;;;5.90;4.70;;;;;;;35.31;48.09;100168.92;1774520;80;25820;-66
2021/07/16 12:33:49;;;;;;;3.67;3.37;;;;;;;35.47;48.09;100167.69;1701992;83;27635;-66
2021/07/16 12:36:28;;;;;;;8.90;4.75;;;;;;;35.63;47.63;100175.48;1725462;82;25402;-67
2021/07/16 12:38:56;;;;;;;;;;;;;;;35.72;46.79;100176.80;1730574;82;25712;-67
2021/07/16 12:41:24;;;;;;;4.47;3.37;;;;;;;35.81;46.31;100177.31;1728912;82;25794;-75
2021/07/16 12:43:51;;;;;;;6.62;3.17;;;;;;;35.89;45.98;100179.27;1726838;82;25659;-75
2021/07/16 12:46:28;;;;;;;4.12;3.67;;;;;;;35.95;46.08;100172.30;1728990;82;29691;-73
2021/07/16 12:49:13;;;;;;;5.42;4.33;;;;;;;36.02;45.32;100173.94;1727300;82;25901;-75
2021/07/16 12:51:40;;;;;;;7.45;3.92;;;;;;;36.01;45.28;100163.32;1723198;82;26521;-78
2021/07/16 12:54:25;;;;;;;4.97;4.03;;;;;;;36.15;44.93;100166.56;1724975;82;26160;-74
2021/07/16 12:56:49;;;;;;;5.87;4.97;;;;;;;36.14;44.55;100165.80;1689285;84;26156;-76
2021/07/16 12:59:30;;;;;;;4.22;3.83;;;;;;;36.12;44.00;100170.38;1699332;84;27700;-74
2021/07/16 13:01:56;;;;;;;5.45;4.90;;;;;;;36.04;43.85;100166.55;1708919;83;25836;-75
2021/07/16 13:04:28;;;;;;;5.25;4.75;;;;;;;36.04;43.68;100167.95;1700247;84;25771;-79
2021/07/16 13:06:56;;;;;;;6.95;3.87;;;;;;;35.99;43.38;100164.42;1698354;83;27294;-77
2021/07/16 13:09:26;;;;;;;4.33;3.90;;;;;;;36.03;43.23;100161.40;1710562;83;25674;-78
2021/07/16 13:12:18;;;;;;;4.72;4.33;;;;;;;36.01;42.81;100159.10;1708155;83;27629;-73
2021/07/16 13:15:04;;;;;;;3.65;3.05;;;;;;;36.12;42.85;100152.84;1698840;84;25919;-65
2021/07/16 13:17:36;;;;;;;5.05;4.00;;;;;;;36.12;42.85;100152.84;1696685;84;25789;-64
2021/07/16 13:20:13;;;;;;;4.05;3.75;;;;;;;36.14;42.83;100146.73;1712807;83;25717;-65
2021/07/16 13:22:43;;;;;;;5.75;4.80;;;;;;;36.22;42.68;100144.44;1696189;84;25878;-66
2021/07/16 13:25:14;;;;;;;5.45;3.95;;;;;;;36.29;42.71;100146.71;1708646;83;27478;-62
2021/07/16 13:27:43;;;;;;;4.67;3.90;;;;;;;36.30;42.78;100137.75;1709482;83;25749;-63
2021/07/16 13:30:12;;;;;;;5.97;5.05;;;;;;;36.26;42.58;100133.73;1700615;84;25741;-62
2021/07/16 13:32:40;;;;;;;6.05;4.55;;;;;;;36.25;42.39;100134.23;1701951;80;26423;-63
2021/07/16 13:35:08;;;;;;;5.78;4.30;;;;;;;35.95;41.89;100135.72;1776240;80;29538;-63
2021/07/16 13:37:35;;;;;;;5.55;4.97;;;;;;;35.78;41.91;100137.52;1765873;80;32915;-63
2021/07/16 13:40:06;;;;;;;5.30;4.55;;;;;;;35.50;41.67;100131.57;1769306;80;27414;-64
2021/07/16 13:42:32;;;;;;;7.42;5.15;;;;;;;35.13;42.09;100133.34;1776590;79;25789;-64
2021/07/16 13:44:58;;;;;;;10.28;5.08;;;;;;;34.89;42.72;100134.81;1745387;81;26406;-63
2021/07/16 13:47:25;;;;;;;9.90;8.75;;;;;;;34.78;43.16;100148.64;1698741;83;25733;-63
2021/07/16 13:49:51;;;;;;;9.88;9.10;;;;;;;34.78;43.16;100148.64;1715049;83;27557;-63
2021/07/16 13:52:20;;;;;;;11.18;10.38;;;;;;;34.69;43.74;100129.03;1732383;82;25895;-63
2021/07/16 13:54:46;;;;;;;10.68;9.80;;;;;;;34.69;43.02;100129.80;1703252;83;25665;-63
2021/07/16 13:57:14;;;;;;;10.23;9.35;;;;;;;34.65;43.76;100127.82;1727950;82;27355;-63
2021/07/16 13:59:40;;;;;;;10.57;9.70;;;;;;;34.63;43.73;100124.70;1731634;82;25762;-64
2021/07/16 14:02:07;;;;;;;10.82;8.88;;;;;;;34.55;43.39;100128.52;1704240;83;28267;-64
2021/07/16 14:04:33;;;;;;;11.95;10.90;;;;;;;34.52;43.57;100130.88;1725045;82;25844;-65
2021/07/16 14:07:00;;;;;;;11.30;10.30;;;;;;;34.54;43.42;100126.95;1729868;82;25683;-66
2021/07/16 14:09:26;;;;;;;5.92;4.28;;;;;;;34.54;43.58;100134.61;1735665;82;25746;-66
2021/07/16 14:11:54;;;;;;;5.92;5.50;;;;;;;34.56;43.32;100131.45;1717192;82;25665;-66
2021/07/16 14:14:21;;;;;;;8.50;6.55;;;;;;;34.49;41.83;100138.08;1736475;82;29694;-66
2021/07/16 14:16:47;;;;;;;7.30;6.60;;;;;;;34.39;42.05;100140.93;1713745;82;25852;-66
2021/07/16 14:19:13;;;;;;;7.25;6.58;;;;;;;34.31;42.05;100136.16;1739960;82;25781;-63
2021/07/16 14:21:40;;;;;;;7.40;6.70;;;;;;;34.13;41.41;100141.24;1718427;82;25717;-65
2021/07/16 14:24:07;;;;;;;10.15;9.25;;;;;;;33.90;41.77;100149.77;1739646;82;25819;-66
2021/07/16 14:26:34;;;;;;;13.25;9.40;;;;;;;33.81;42.02;100145.73;1718292;82;27596;-65
2021/07/16 14:29:00;;;;;;;9.80;8.73;;;;;;;33.73;42.22;100141.75;1739575;82;25732;-66
2021/07/16 14:31:27;;;;;;;7.10;6.50;;;;;;;33.66;42.65;100146.23;1740756;82;25725;-82
2021/07/16 14:33:55;;;;;;;6.75;5.33;;;;;;;33.62;42.88;100145.64;1733300;81;25650;-82
2021/07/16 14:36:22;;;;;;;12.35;6.47;;;;;;;33.56;42.65;100144.72;1700544;84;26407;-83
2021/07/16 14:38:49;;;;;;;7.03;6.37;;;;;;;33.49;42.81;100136.02;1719360;83;28440;-82
2021/07/16 14:41:17;;;;;;;7.28;6.67;;;;;;;33.45;42.78;100132.61;1700604;84;26103;-65
2021/07/16 14:43:47;;;;;;;8.23;5.87;;;;;;;33.40;42.99;100133.25;1719108;83;25751;-65
2021/07/16 14:46:15;;;;;;;9.20;6.55;;;;;;;33.35;42.84;100131.85;1703454;84;26687;-65
2021/07/16 14:48:42;;;;;;;6.40;5.80;;;;;;;33.31;42.93;100133.42;1704040;84;25883;-65
2021/07/16 14:51:09;;;;;;;6.72;5.53;;;;;;;33.22;42.59;100132.66;1709554;83;27682;-66
2021/07/16 14:53:35;;;;;;;8.58;7.50;;;;;;;33.11;42.43;100141.53;1709466;83;26376;-66
2021/07/16 14:56:05;;;;;;;7.40;6.17;;;;;;;33.00;42.51;100132.21;1709611;83;25704;-66
2021/07/16 14:58:31;;;;;;;6.05;5.35;;;;;;;32.93;42.68;100136.70;1691552;83;25941;-66
2021/07/16 15:00:58;;;;;;;6.97;6.15;;;;;;;32.84;42.44;100134.69;1709592;83;25840;-66
2021/07/16 15:03:24;;;;;;;8.40;5.60;;;;;;;32.70;41.95;100126.30;1709583;83;27511;-66
2021/07/16 15:05:51;;;;;;;7.62;5.45;;;;;;;32.58;41.73;100130.00;1709433;83;25809;-65
2021/07/16 15:08:17;;;;;;;8.83;6.75;;;;;;;32.43;42.18;100120.03;1691138;83;25938;-66
2021/07/16 15:10:43;;;;;;;7.20;6.10;;;;;;;32.36;42.84;100124.53;1709429;83;25765;-66
2021/07/16 15:13:10;;;;;;;7.60;5.85;;;;;;;32.26;42.95;100119.53;1709549;83;25705;-66
2021/07/16 15:15:37;;;;;;;11.03;5.80;;;;;;;32.18;43.21;100114.07;1709562;83;27566;-65
2021/07/16 15:18:03;;;;;;;7.53;4.03;;;;;;;32.10;43.04;100118.43;1709377;83;25785;-65
2021/07/16 15:24:43;;;;;;;9.48;8.65;;;;;;;31.83;43.74;100117.06;1700375;84;25782;-66
2021/07/16 15:31:29;;;;;;;6.65;3.70;;;;;;;31.55;43.75;100125.34;1700463;84;25844;-66
2021/07/16 15:33:57;;;;;;;5.65;4.15;;;;;;;31.37;44.22;100132.20;1753401;80;25850;-85
2021/07/16 15:36:25;;;;;;;9.10;5.87;;;;;;;31.26;44.89;100127.79;1781217;80;25593;-85
2021/07/16 15:38:53;;;;;;;7.25;6.53;;;;;;;31.12;44.92;100121.94;1781380;80;25771;-83
2021/07/16 15:41:19;;;;;;;8.93;8.23;;;;;;;30.98;45.23;100124.64;1781151;80;25791;-65
2021/07/16 15:43:47;;;;;;;8.15;7.55;;;;;;;30.86;45.40;100127.00;1781164;80;27520;-65
2021/07/16 15:46:14;;;;;;;10.40;8.88;;;;;;;30.78;45.79;100128.48;1781052;80;25732;-65
2021/07/16 15:48:40;;;;;;;8.03;7.35;;;;;;;30.71;46.10;100131.52;1781091;80;25675;-66
2021/07/16 15:51:07;;;;;;;8.95;8.10;;;;;;;30.66;46.13;100128.69;1781092;80;25711;-66
2021/07/16 15:53:33;;;;;;;9.35;8.60;;;;;;;30.58;46.45;100125.20;1781145;80;25759;-66
2021/07/16 15:56:00;;;;;;;9.43;8.68;;;;;;;30.53;46.68;100127.34;1780972;80;28921;-66
2021/07/16 15:58:26;;;;;;;10.13;9.23;;;;;;;30.52;46.99;100113.84;1781011;80;25699;-66
2021/07/16 16:00:53;;;;;;;9.50;8.63;;;;;;;30.50;47.24;100114.91;1781027;80;25708;-66
2021/07/16 16:03:19;;;;;;;16.07;9.90;;;;;;;30.44;47.32;100105.55;1781045;80;25860;-67
2021/07/16 16:05:46;;;;;;;11.53;10.08;;;;;;;30.39;47.59;100105.50;1781122;80;25965;-66
2021/07/16 16:08:12;;;;;;;10.68;9.68;;;;;;;30.31;47.92;100110.52;1781051;80;28132;-66
2021/07/16 16:10:41;;;;;;;9.50;8.60;;;;;;;30.25;48.32;100108.75;1781016;80;25755;-67
2021/07/16 16:13:08;;;;;;;9.53;8.73;;;;;;;30.16;48.50;100110.20;1781383;80;25807;-64
2021/07/16 16:15:35;;;;;;;10.43;9.48;;;;;;;30.10;48.64;100111.22;1752646;80;25708;-64
2021/07/16 16:18:01;;;;;;;11.65;10.53;;;;;;;29.96;48.49;100108.28;1775555;80;25822;-64
2021/07/16 16:20:28;;;;;;;11.88;10.98;;;;;;;29.84;48.62;100102.88;1744904;80;28060;-65
2021/07/16 16:22:55;;;;;;;14.60;13.60;;;;;;;29.74;48.63;100103.34;1775448;80;25718;-66
2021/07/16 16:25:21;;;;;;;15.53;14.33;;;;;;;29.64;48.88;100112.05;1789393;80;25791;-65
2021/07/16 16:27:48;;;;;;;15.35;14.05;;;;;;;29.51;48.67;100113.41;1775596;80;25684;-66
2021/07/16 16:30:19;;;;;;;12.82;11.63;;;;;;;29.39;48.81;100112.97;1789410;80;25752;-66
2021/07/16 16:32:46;;;;;;;12.88;11.65;;;;;;;29.32;49.12;100123.52;1775674;80;27453;-65
2021/07/16 16:35:13;;;;;;;12.65;11.55;;;;;;;29.25;49.46;100121.72;1767116;80;25772;-65
2021/07/16 16:37:39;;;;;;;11.73;10.78;;;;;;;29.15;49.66;100123.58;1755770;81;25713;-65
2021/07/16 16:40:09;;;;;;;13.35;12.28;;;;;;;29.08;50.01;100124.38;1737372;82;25968;-66
2021/07/16 16:42:37;;;;;;;13.43;12.10;;;;;;;29.02;50.08;100124.92;1766692;80;25731;-65
2021/07/16 16:45:07;;;;;;;12.95;11.57;;;;;;;29.04;49.96;100132.22;1716225;82;27479;-65
2021/07/16 16:47:35;;;;;;;15.78;14.18;;;;;;;29.05;50.13;100129.61;1741111;81;25820;-65
2021/07/16 16:50:06;;;;;;;21.10;19.32;;;;;;;28.99;50.34;100129.20;1737534;82;25852;-66
2021/07/16 16:52:33;;;;;;;17.00;15.32;;;;;;;28.91;50.52;100132.00;1737369;81;25753;-66
2021/07/16 16:55:00;;;;;;;15.80;14.65;;;;;;;28.79;50.58;100129.34;1737458;82;25699;-66
2021/07/16 16:57:26;;;;;;;13.68;12.50;;;;;;;28.68;50.55;100128.23;1738768;82;27925;-84
2021/07/16 16:59:53;;;;;;;16.25;14.95;;;;;;;28.59;50.72;100132.23;1720937;82;25326;-84
2021/07/16 17:02:20;;;;;;;18.87;17.10;;;;;;;28.46;50.93;100131.53;1749504;81;25607;-83
2021/07/16 17:04:46;;;;;;;15.80;13.85;;;;;;;28.36;51.26;100130.42;1768905;81;25661;-84
2021/07/16 17:07:14;;;;;;;16.48;14.93;;;;;;;28.24;51.59;100127.11;1740502;81;25812;-84
2021/07/16 17:09:41;;;;;;;18.65;17.25;;;;;;;28.11;51.59;100124.25;1768342;81;29663;-85
2021/07/16 17:12:09;;;;;;;19.67;18.05;;;;;;;28.02;51.93;100125.45;1767951;80;26322;-85
2021/07/16 17:14:35;;;;;;;21.25;19.82;;;;;;;27.94;52.05;100129.61;1761475;81;25660;-83
2021/07/16 17:17:02;;;;;;;19.55;17.77;;;;;;;27.86;52.28;100130.36;1737433;82;25680;-83
2021/07/16 17:19:28;;;;;;;21.57;19.92;;;;;;;27.80;52.75;100127.14;1716872;82;26434;-83